Time;durP1;ratioP1;P1;durP2;ratioP2;P2;SDS_P1;SDS_P2;PMS_P1;PMS_P2;Temp;Humidity;BMP_temperature;BMP_pressure;BME280_temperature;BME280_humidity;BME280_pressure;Samples;Min_cycle;Max_cycle;Signal;HPM_P1;HPM_P2
2022/04/09 00:02:13;;;;;;;12.30;5.63;;;10.30;1.00;;;;;;5071456;28;20198;-74
2022/04/09 00:04:40;;;;;;;7.90;1.93;;;10.30;1.00;;;;;;5071681;28;20272;-73
2022/04/09 00:07:07;;;;;;;14.40;2.30;;;10.20;1.00;;;;;;5071128;28;20705;-73
2022/04/09 00:09:34;;;;;;;12.17;2.57;;;10.20;1.00;;;;;;5071833;28;20207;-74
2022/04/09 00:12:02;;;;;;;8.10;2.13;;;10.20;1.00;;;;;;5071720;28;20674;-74
2022/04/09 00:14:29;;;;;;;7.10;1.90;;;10.20;1.00;;;;;;5070452;28;20669;-75
2022/04/09 00:16:56;;;;;;;12.57;4.17;;;10.10;1.00;;;;;;5071633;28;20264;-70
2022/04/09 00:19:24;;;;;;;4.30;2.27;;;10.20;1.00;;;;;;5070944;28;20210;-73
2022/04/09 00:21:51;;;;;;;11.17;2.43;;;10.20;1.00;;;;;;5071381;28;20268;-72
2022/04/09 00:24:18;;;;;;;7.27;2.40;;;10.10;1.00;;;;;;5070987;28;20255;-72
2022/04/09 00:26:45;;;;;;;6.33;2.37;;;10.10;1.00;;;;;;5071169;28;20234;-73
2022/04/09 00:29:12;;;;;;;8.83;3.03;;;10.00;1.00;;;;;;5070603;28;20633;-74
2022/04/09 00:31:39;;;;;;;25.27;3.47;;;10.00;1.00;;;;;;5071104;28;20666;-73
2022/04/09 00:34:06;;;;;;;8.17;2.27;;;10.00;1.00;;;;;;5070757;28;20681;-72
2022/04/09 00:36:35;;;;;;;10.43;3.20;;;10.00;1.00;;;;;;5071782;28;20210;-73
2022/04/09 00:39:02;;;;;;;11.37;2.83;;;10.00;1.00;;;;;;5071497;28;20202;-72
2022/04/09 00:41:29;;;;;;;13.90;3.73;;;9.90;1.00;;;;;;5071536;28;20213;-73
2022/04/09 00:43:56;;;;;;;7.63;2.13;;;9.90;1.00;;;;;;5071069;28;20210;-76
2022/04/09 00:46:23;;;;;;;7.97;2.10;;;9.90;1.00;;;;;;5070618;28;20719;-75
2022/04/09 00:48:50;;;;;;;8.43;1.80;;;9.90;1.00;;;;;;5070938;28;20209;-74
2022/04/09 00:51:18;;;;;;;7.70;2.27;;;9.90;1.00;;;;;;5071033;28;20260;-73
2022/04/09 00:53:48;;;;;;;5.10;2.30;;;9.90;1.00;;;;;;5071295;28;20204;-73
2022/04/09 00:56:20;;;;;;;10.07;2.20;;;9.90;1.00;;;;;;5069173;28;20222;-74
2022/04/09 00:58:54;;;;;;;5.00;2.60;;;9.80;1.00;;;;;;5050491;28;20273;-73
2022/04/09 01:01:22;;;;;;;10.37;2.77;;;9.80;1.00;;;;;;5050506;28;20207;-73
2022/04/09 01:03:51;;;;;;;8.13;2.17;;;9.90;1.00;;;;;;5051143;28;20276;-74
2022/04/09 01:06:18;;;;;;;11.47;2.90;;;9.90;1.00;;;;;;5050281;28;20615;-72
2022/04/09 01:08:47;;;;;;;7.20;2.63;;;9.80;1.00;;;;;;5050714;28;20206;-73
2022/04/09 01:11:15;;;;;;;7.17;2.30;;;9.80;1.00;;;;;;5050484;28;20206;-73
2022/04/09 01:13:42;;;;;;;18.67;5.17;;;9.70;1.00;;;;;;5050406;28;20203;-74
2022/04/09 01:16:09;;;;;;;10.60;3.17;;;9.70;1.00;;;;;;5050549;28;20312;-75
2022/04/09 01:18:37;;;;;;;8.20;2.27;;;9.70;1.00;;;;;;5050438;28;20602;-72
2022/04/09 01:21:05;;;;;;;9.50;2.20;;;9.80;1.00;;;;;;5050980;28;20252;-74
2022/04/09 01:23:34;;;;;;;7.63;2.33;;;9.70;1.00;;;;;;5051477;28;20256;-75
2022/04/09 01:26:03;;;;;;;11.63;3.00;;;9.70;1.00;;;;;;5051951;28;20264;-75
2022/04/09 01:28:30;;;;;;;10.67;2.60;;;9.70;1.00;;;;;;5054501;28;20295;-75
2022/04/09 01:30:57;;;;;;;12.57;4.10;;;9.60;1.00;;;;;;5054343;28;20625;-72
2022/04/09 01:33:24;;;;;;;9.13;3.43;;;9.70;1.00;;;;;;5054160;28;20211;-70
2022/04/09 01:35:52;;;;;;;6.70;1.83;;;9.70;1.00;;;;;;5054822;28;20199;-73
2022/04/09 01:38:19;;;;;;;8.07;2.47;;;9.70;1.00;;;;;;5054237;28;20202;-73
2022/04/09 01:40:48;;;;;;;7.67;2.10;;;9.70;1.00;;;;;;5054432;28;20199;-72
2022/04/09 01:43:15;;;;;;;13.07;3.07;;;9.70;1.00;;;;;;5053813;28;20293;-74
2022/04/09 01:45:42;;;;;;;9.50;1.73;;;9.60;1.00;;;;;;5054482;28;20256;-74
2022/04/09 01:48:09;;;;;;;8.80;2.00;;;9.50;1.00;;;;;;5053796;28;20234;-75
2022/04/09 01:50:36;;;;;;;7.37;2.57;;;9.50;1.00;;;;;;5054569;28;20572;-73
2022/04/09 01:53:03;;;;;;;5.53;2.73;;;9.60;1.00;;;;;;5054596;28;20630;-75
2022/04/09 01:55:30;;;;;;;7.87;1.57;;;9.50;1.00;;;;;;5053927;28;20294;-75
2022/04/09 01:57:58;;;;;;;11.20;2.47;;;9.50;1.00;;;;;;5054064;28;20272;-73
2022/04/09 02:00:25;;;;;;;9.37;1.87;;;9.40;1.00;;;;;;5053638;28;20272;-73
2022/04/09 02:02:53;;;;;;;9.70;2.57;;;9.50;1.00;;;;;;5054372;28;20628;-73
2022/04/09 02:05:20;;;;;;;8.33;2.70;;;9.50;1.00;;;;;;5053677;28;20203;-74
2022/04/09 02:07:48;;;;;;;8.37;2.73;;;9.40;1.00;;;;;;5054519;28;20238;-73
2022/04/09 02:10:16;;;;;;;8.87;2.50;;;9.40;1.00;;;;;;5053325;28;20209;-73
2022/04/09 02:12:45;;;;;;;9.00;3.10;;;9.40;1.00;;;;;;5053798;28;20313;-73
2022/04/09 02:15:15;;;;;;;6.17;2.90;;;9.40;1.00;;;;;;5053321;28;20206;-72
2022/04/09 02:17:43;;;;;;;8.63;2.47;;;9.30;1.00;;;;;;5053556;28;20256;-72
2022/04/09 02:20:13;;;;;;;10.17;3.53;;;9.30;1.00;;;;;;5053580;28;20203;-73
2022/04/09 02:22:41;;;;;;;13.17;3.20;;;9.30;1.00;;;;;;5053744;28;20254;-73
2022/04/09 02:25:11;;;;;;;10.07;2.63;;;9.30;1.00;;;;;;5053874;28;20206;-72
2022/04/09 02:27:38;;;;;;;10.83;2.03;;;9.20;1.00;;;;;;5053468;28;20231;-73
2022/04/09 02:30:08;;;;;;;7.53;2.40;;;9.20;1.00;;;;;;5053784;28;20257;-72
2022/04/09 02:32:44;;;;;;;7.40;2.03;;;9.20;1.00;;;;;;5053413;28;20203;-72
2022/04/09 02:35:11;;;;;;;5.90;3.97;;;9.20;1.00;;;;;;5053136;28;20202;-72
2022/04/09 02:37:38;;;;;;;9.83;2.57;;;9.20;1.00;;;;;;5053181;28;20207;-73
2022/04/09 02:40:07;;;;;;;7.80;2.70;;;9.20;1.00;;;;;;5053016;28;20211;-71
2022/04/09 02:42:36;;;;;;;6.50;2.70;;;9.20;1.00;;;;;;5053528;28;20736;-73
2022/04/09 02:45:04;;;;;;;12.03;2.53;;;9.20;1.00;;;;;;5053927;28;20210;-73
2022/04/09 02:47:31;;;;;;;9.87;3.07;;;9.20;1.00;;;;;;5053862;28;20312;-75
2022/04/09 02:49:59;;;;;;;8.27;2.47;;;9.20;1.00;;;;;;5053306;28;20264;-76
2022/04/09 02:52:28;;;;;;;6.97;2.57;;;9.30;1.00;;;;;;5052651;28;20211;-75
2022/04/09 02:54:55;;;;;;;7.67;2.97;;;9.20;1.00;;;;;;5052918;28;20290;-74
2022/04/09 02:57:23;;;;;;;18.20;3.97;;;9.20;1.00;;;;;;5052745;28;20219;-73
2022/04/09 02:59:50;;;;;;;11.83;2.83;;;9.20;1.00;;;;;;5053350;28;20207;-74
2022/04/09 03:02:17;;;;;;;7.00;2.20;;;9.30;1.00;;;;;;5052514;28;20261;-74
2022/04/09 03:04:44;;;;;;;6.23;3.00;;;9.20;1.00;;;;;;5052849;28;20199;-74
2022/04/09 03:07:12;;;;;;;6.70;3.73;;;9.10;1.00;;;;;;5051888;28;20300;-74
2022/04/09 03:09:39;;;;;;;12.70;3.13;;;9.10;1.00;;;;;;5053080;28;20631;-74
2022/04/09 03:12:06;;;;;;;8.50;3.07;;;9.30;1.00;;;;;;5052543;28;20207;-72
2022/04/09 03:14:33;;;;;;;8.87;2.23;;;9.30;1.00;;;;;;5053125;28;20207;-76
2022/04/09 03:17:00;;;;;;;13.53;3.57;;;9.30;1.00;;;;;;5052990;28;20284;-75
2022/04/09 03:19:27;;;;;;;8.13;1.93;;;9.20;1.00;;;;;;5052171;28;20603;-75
2022/04/09 03:21:54;;;;;;;8.17;1.93;;;9.20;1.00;;;;;;5052494;28;20207;-76
2022/04/09 03:24:22;;;;;;;5.60;2.80;;;9.20;1.00;;;;;;5052313;28;20256;-77
2022/04/09 03:26:49;;;;;;;12.23;3.50;;;9.20;1.00;;;;;;5052832;28;20264;-77
2022/04/09 03:29:16;;;;;;;9.67;2.67;;;9.20;1.00;;;;;;5052055;28;20380;-78
2022/04/09 03:31:43;;;;;;;8.17;3.40;;;9.10;1.00;;;;;;5052319;28;20233;-76
2022/04/09 03:34:10;;;;;;;7.33;2.73;;;9.20;1.00;;;;;;5051842;28;20713;-75
2022/04/09 03:36:38;;;;;;;11.53;2.97;;;9.20;1.00;;;;;;5052805;28;20203;-75
2022/04/09 03:39:06;;;;;;;10.10;2.80;;;9.20;1.00;;;;;;5052179;28;20679;-75
2022/04/09 03:41:34;;;;;;;8.30;2.43;;;9.20;1.00;;;;;;5052544;28;20203;-76
2022/04/09 03:44:01;;;;;;;8.23;2.23;;;9.30;1.00;;;;;;5052431;28;20260;-76
2022/04/09 03:46:28;;;;;;;13.73;3.40;;;9.20;1.00;;;;;;5051691;28;20234;-76
2022/04/09 03:48:55;;;;;;;8.80;2.93;;;9.20;1.00;;;;;;5051467;28;20231;-76
2022/04/09 03:51:22;;;;;;;9.77;3.17;;;9.20;1.00;;;;;;5051377;28;20203;-76
2022/04/09 03:53:49;;;;;;;10.33;2.13;;;9.30;1.00;;;;;;5051888;28;20206;-76
2022/04/09 03:56:16;;;;;;;13.60;3.70;;;9.20;1.00;;;;;;5051479;28;20617;-76
2022/04/09 03:58:45;;;;;;;11.57;2.80;;;9.20;1.00;;;;;;5051581;28;20670;-72
2022/04/09 04:01:13;;;;;;;18.33;4.20;;;9.20;1.00;;;;;;5051292;28;20624;-71
2022/04/09 04:03:40;;;;;;;15.70;4.30;;;9.20;1.00;;;;;;5052068;28;20234;-70
2022/04/09 04:06:07;;;;;;;4.83;2.40;;;9.30;1.00;;;;;;5051171;28;20205;-72
2022/04/09 04:08:34;;;;;;;12.27;3.13;;;9.20;1.00;;;;;;5052293;28;20287;-72
2022/04/09 04:11:02;;;;;;;6.70;2.37;;;9.30;1.00;;;;;;5051966;28;20248;-72
2022/04/09 04:13:30;;;;;;;11.40;3.53;;;9.30;1.00;;;;;;5051585;28;20202;-72
2022/04/09 04:15:59;;;;;;;8.70;2.30;;;9.30;1.00;;;;;;5051485;28;20203;-72
2022/04/09 04:18:26;;;;;;;13.30;3.63;;;9.30;1.00;;;;;;5051088;28;20211;-72
2022/04/09 04:20:53;;;;;;;7.93;2.60;;;9.30;1.00;;;;;;5051384;28;20252;-72
2022/04/09 04:23:20;;;;;;;14.97;3.10;;;9.50;1.00;;;;;;5051166;28;20210;-72
2022/04/09 04:25:47;;;;;;;13.23;3.17;;;9.40;1.00;;;;;;5051298;28;20666;-72
2022/04/09 04:28:14;;;;;;;9.30;4.03;;;9.40;1.00;;;;;;5050691;28;20226;-75
2022/04/09 04:30:41;;;;;;;7.63;2.37;;;9.40;1.00;;;;;;5051014;28;20207;-72
2022/04/09 04:33:09;;;;;;;7.53;2.40;;;9.40;1.00;;;;;;5050731;28;20257;-72
2022/04/09 04:35:36;;;;;;;10.87;3.10;;;9.30;1.00;;;;;;5051301;28;20202;-73
2022/04/09 04:38:03;;;;;;;11.20;2.50;;;9.30;1.00;;;;;;5051527;28;20337;-73
2022/04/09 04:40:30;;;;;;;12.67;2.60;;;9.30;1.00;;;;;;5051229;28;20206;-71
2022/04/09 04:42:57;;;;;;;10.20;2.73;;;9.40;1.00;;;;;;5050722;28;20266;-72
2022/04/09 04:45:24;;;;;;;12.70;2.50;;;9.50;1.00;;;;;;5050990;28;20832;-73
2022/04/09 04:47:51;;;;;;;8.87;3.73;;;9.50;1.00;;;;;;5050437;28;20744;-73
2022/04/09 04:50:20;;;;;;;12.23;3.33;;;9.50;1.00;;;;;;5050322;28;20724;-72
2022/04/09 04:52:47;;;;;;;9.13;3.23;;;9.50;1.00;;;;;;5050675;28;20199;-73
2022/04/09 04:55:14;;;;;;;7.50;2.90;;;9.50;1.00;;;;;;5050386;28;20202;-72
2022/04/09 04:57:43;;;;;;;8.33;3.37;;;9.60;1.00;;;;;;5050575;28;20211;-71
2022/04/09 05:00:10;;;;;;;11.30;3.37;;;9.50;1.00;;;;;;5050705;28;20257;-73
2022/04/09 05:02:38;;;;;;;12.57;3.17;;;9.40;1.00;;;;;;5050579;28;20198;-74
2022/04/09 05:05:06;;;;;;;17.67;6.97;;;9.50;1.00;;;;;;5050727;28;20674;-71
2022/04/09 05:07:42;;;;;;;9.00;2.57;;;9.50;1.00;;;;;;5051010;28;20242;-72
2022/04/09 05:10:11;;;;;;;13.07;3.83;;;9.50;1.00;;;;;;5050149;28;20291;-73
2022/04/09 05:12:39;;;;;;;7.03;2.10;;;9.50;1.00;;;;;;5051198;28;20206;-73
2022/04/09 05:15:08;;;;;;;6.30;3.20;;;9.50;1.00;;;;;;5050769;28;20549;-72
2022/04/09 05:17:35;;;;;;;8.60;2.37;;;9.50;1.00;;;;;;5054859;28;20234;-73
2022/04/09 05:20:03;;;;;;;14.17;3.07;;;9.50;1.00;;;;;;5069438;28;20665;-71
2022/04/09 05:22:30;;;;;;;13.37;3.50;;;9.50;1.00;;;;;;5070610;28;20677;-73
2022/04/09 05:24:59;;;;;;;15.80;4.53;;;9.60;1.00;;;;;;5051144;28;20206;-72
2022/04/09 05:27:26;;;;;;;8.63;3.17;;;9.60;1.00;;;;;;5050368;28;20636;-73
2022/04/09 05:29:53;;;;;;;8.60;4.20;;;9.60;1.00;;;;;;5050387;28;20311;-71
2022/04/09 05:32:20;;;;;;;12.67;3.13;;;9.60;1.00;;;;;;5059295;28;20234;-72
2022/04/09 05:34:47;;;;;;;10.83;3.17;;;9.60;1.00;;;;;;5070187;28;20670;-72
2022/04/09 05:37:14;;;;;;;14.50;3.40;;;9.60;1.00;;;;;;5069745;28;20267;-74
2022/04/09 05:39:43;;;;;;;9.30;3.60;;;9.60;1.00;;;;;;5070128;28;20615;-74
2022/04/09 05:42:11;;;;;;;9.83;4.00;;;9.60;1.00;;;;;;5070654;28;20206;-73
2022/04/09 05:44:38;;;;;;;11.43;2.43;;;9.70;1.00;;;;;;5070506;28;20206;-72
2022/04/09 05:47:05;;;;;;;10.57;3.30;;;9.70;1.00;;;;;;5070233;28;20252;-72
2022/04/09 05:49:33;;;;;;;11.57;5.00;;;9.70;1.00;;;;;;5070483;28;20226;-71
2022/04/09 05:52:00;;;;;;;8.07;2.50;;;9.60;1.00;;;;;;5070275;28;20608;-74
2022/04/09 05:54:26;;;;;;;10.43;3.17;;;9.60;1.00;;;;;;5069475;28;20263;-73
2022/04/09 05:56:53;;;;;;;11.77;4.70;;;9.60;1.00;;;;;;5070381;28;20210;-74
2022/04/09 05:59:24;;;;;;;8.53;2.93;;;9.60;1.00;;;;;;5069903;28;20206;-74
2022/04/09 06:01:51;;;;;;;9.60;2.80;;;9.70;1.00;;;;;;5069991;28;20738;-74
2022/04/09 06:04:20;;;;;;;9.33;2.07;;;9.60;1.00;;;;;;5069684;28;20198;-72
2022/04/09 06:06:47;;;;;;;5.20;3.00;;;9.70;1.00;;;;;;5070032;28;20228;-72
2022/04/09 06:09:14;;;;;;;10.03;3.07;;;9.50;1.00;;;;;;5069716;28;20230;-74
2022/04/09 06:11:41;;;;;;;8.50;2.50;;;9.50;1.00;;;;;;5067053;28;20636;-75
2022/04/09 06:14:08;;;;;;;7.40;2.03;;;9.50;1.00;;;;;;5052333;28;20211;-73
2022/04/09 06:16:38;;;;;;;8.73;3.07;;;9.50;1.00;;;;;;5053579;28;20233;-77
2022/04/09 06:19:06;;;;;;;9.37;3.37;;;9.50;1.00;;;;;;5053419;28;20207;-73
2022/04/09 06:21:33;;;;;;;6.80;2.33;;;9.50;1.00;;;;;;5053988;28;20203;-73
2022/04/09 06:24:00;;;;;;;6.17;2.07;;;9.50;1.00;;;;;;5067974;28;20217;-73
2022/04/09 06:26:28;;;;;;;3.83;1.97;;;9.40;1.00;;;;;;5072585;28;20206;-76
2022/04/09 06:28:55;;;;;;;13.33;4.63;;;9.50;1.00;;;;;;5072871;28;20325;-72
2022/04/09 06:31:22;;;;;;;9.80;2.43;;;9.40;1.00;;;;;;5072634;28;20206;-74
2022/04/09 06:33:50;;;;;;;8.83;2.10;;;9.50;1.00;;;;;;5072010;28;20202;-79
2022/04/09 06:36:17;;;;;;;8.23;2.43;;;9.30;1.00;;;;;;5072518;28;20210;-76
2022/04/09 06:38:44;;;;;;;7.20;2.07;;;9.40;1.00;;;;;;5073441;28;20638;-76
2022/04/09 06:41:11;;;;;;;5.57;2.33;;;9.40;1.00;;;;;;5073216;28;20611;-77
2022/04/09 06:43:38;;;;;;;10.73;2.40;;;9.50;1.00;;;;;;5073187;28;20673;-76
2022/04/09 06:46:05;;;;;;;4.63;1.70;;;9.40;1.00;;;;;;5072925;28;20224;-76
2022/04/09 06:48:32;;;;;;;10.83;3.50;;;9.50;1.00;;;;;;5073614;28;20222;-76
2022/04/09 06:51:01;;;;;;;12.23;2.47;;;9.70;1.00;;;;;;5073038;28;20202;-74
2022/04/09 06:53:28;;;;;;;13.00;2.90;;;9.80;1.00;;;;;;5064721;28;20202;-76
2022/04/09 06:55:55;;;;;;;10.97;2.90;;;9.70;1.00;;;;;;5052210;28;20748;-76
2022/04/09 06:58:22;;;;;;;7.50;3.27;;;9.80;1.00;;;;;;5052126;28;20239;-76
2022/04/09 07:00:49;;;;;;;9.63;2.43;;;9.90;1.00;;;;;;5056404;28;20284;-76
2022/04/09 07:03:16;;;;;;;8.03;2.17;;;10.10;1.00;;;;;;5071560;28;20202;-76
2022/04/09 07:05:42;;;;;;;11.20;2.33;;;10.10;1.00;;;;;;5072863;28;20230;-76
2022/04/09 07:08:11;;;;;;;10.47;2.23;;;10.00;1.00;;;;;;5071584;28;20206;-76
2022/04/09 07:10:38;;;;;;;8.83;2.37;;;10.00;1.00;;;;;;5068255;28;20293;-76
2022/04/09 07:13:06;;;;;;;7.97;1.80;;;10.00;1.00;;;;;;5071888;28;20210;-74
2022/04/09 07:15:33;;;;;;;3.90;1.80;;;10.00;1.00;;;;;;5052613;28;20245;-75
2022/04/09 07:18:00;;;;;;;7.17;1.40;;;10.00;1.00;;;;;;5056116;28;20288;-76
2022/04/09 07:20:35;;;;;;;11.57;2.83;;;10.10;1.00;;;;;;5071609;28;20210;-74
2022/04/09 07:23:02;;;;;;;8.23;2.03;;;10.30;1.00;;;;;;5071530;28;20677;-76
2022/04/09 07:25:31;;;;;;;2.20;1.27;;;10.60;1.00;;;;;;5072103;28;20209;-74
2022/04/09 07:27:58;;;;;;;8.97;2.40;;;10.70;1.00;;;;;;5072186;28;20210;-76
2022/04/09 07:30:26;;;;;;;4.83;1.60;;;10.90;1.00;;;;;;5071863;28;20234;-75
2022/04/09 07:32:56;;;;;;;6.10;2.53;;;11.20;1.00;;;;;;5072160;28;20670;-75
2022/04/09 07:35:23;;;;;;;10.07;3.23;;;11.10;1.00;;;;;;5069261;28;21788;-74
2022/04/09 07:37:53;;;;;;;9.27;2.20;;;11.00;1.00;;;;;;5070525;28;20728;-74
2022/04/09 07:40:24;;;;;;;7.57;1.80;;;11.00;1.00;;;;;;5069374;28;20236;-73
2022/04/09 07:42:53;;;;;;;8.30;2.20;;;10.80;1.00;;;;;;5071313;28;20207;-74
2022/04/09 07:45:20;;;;;;;9.77;1.80;;;10.90;1.00;;;;;;5071647;28;20614;-74
2022/04/09 07:47:52;;;;;;;7.07;2.37;;;10.70;1.00;;;;;;5071973;28;20228;-73
2022/04/09 07:50:20;;;;;;;7.90;1.97;;;10.60;1.00;;;;;;5071501;28;20697;-74
2022/04/09 07:52:47;;;;;;;3.77;1.87;;;10.90;1.00;;;;;;5071774;28;20202;-73
2022/04/09 07:55:17;;;;;;;7.67;1.70;;;11.00;1.00;;;;;;5070874;28;20248;-73
2022/04/09 07:57:45;;;;;;;6.10;2.03;;;10.80;1.00;;;;;;5071184;28;20673;-73
2022/04/09 08:00:14;;;;;;;8.93;3.40;;;10.70;1.00;;;;;;5071474;28;20217;-73
2022/04/09 08:02:41;;;;;;;4.60;1.60;;;10.60;1.00;;;;;;5071911;28;20299;-75
2022/04/09 08:05:10;;;;;;;7.93;1.73;;;10.70;1.00;;;;;;5071154;28;20669;-75
2022/04/09 08:07:37;;;;;;;4.40;1.90;;;10.70;1.00;;;;;;5071714;28;20293;-74
2022/04/09 08:10:05;;;;;;;12.30;4.97;;;11.00;1.00;;;;;;5071532;28;20280;-74
2022/04/09 08:12:32;;;;;;;7.80;1.80;;;11.30;1.00;;;;;;5071750;28;20260;-74
2022/04/09 08:15:00;;;;;;;6.17;2.83;;;11.30;1.00;;;;;;5071903;28;20665;-75
2022/04/09 08:17:28;;;;;;;5.00;2.47;;;11.60;1.00;;;;;;5071135;28;20244;-73
2022/04/09 08:19:56;;;;;;;5.57;1.63;;;11.70;1.00;;;;;;5071222;28;20264;-72
2022/04/09 08:22:24;;;;;;;5.10;1.40;;;11.90;1.00;;;;;;5070767;28;20696;-73
2022/04/09 08:24:51;;;;;;;3.93;1.27;;;11.80;1.00;;;;;;5067823;28;20212;-74
2022/04/09 08:27:18;;;;;;;4.47;1.40;;;11.90;1.00;;;;;;5070754;28;20259;-74
2022/04/09 08:29:45;;;;;;;2.67;1.43;;;12.10;1.00;;;;;;5071061;28;20230;-74
2022/04/09 08:32:13;;;;;;;3.37;1.50;;;12.20;1.00;;;;;;5070706;28;20238;-74
2022/04/09 08:34:41;;;;;;;5.57;1.50;;;12.30;1.00;;;;;;5071254;28;20199;-74
2022/04/09 08:37:08;;;;;;;7.70;2.13;;;12.20;1.00;;;;;;5070314;28;20711;-73
2022/04/09 08:39:35;;;;;;;4.00;1.53;;;12.10;1.00;;;;;;5071006;28;20746;-73
2022/04/09 08:42:02;;;;;;;5.73;1.87;;;11.80;1.00;;;;;;5070954;28;20634;-72
2022/04/09 08:44:29;;;;;;;3.17;2.00;;;11.70;1.00;;;;;;5070939;28;20202;-73
2022/04/09 08:46:57;;;;;;;5.20;2.80;;;11.90;1.00;;;;;;5070916;28;20212;-74
2022/04/09 08:49:25;;;;;;;6.10;2.30;;;12.30;1.00;;;;;;5070370;28;20724;-74
2022/04/09 08:51:53;;;;;;;3.67;1.97;;;12.60;1.00;;;;;;5071130;28;20572;-74
2022/04/09 08:54:20;;;;;;;3.20;1.57;;;12.70;1.00;;;;;;5070994;28;20206;-74
2022/04/09 08:56:49;;;;;;;4.13;1.97;;;12.50;1.00;;;;;;5070586;28;20251;-74
2022/04/09 08:59:16;;;;;;;3.40;1.40;;;12.30;1.00;;;;;;5066829;28;20202;-73
2022/04/09 09:01:43;;;;;;;2.40;1.10;;;12.30;1.00;;;;;;5071230;28;20276;-72
2022/04/09 09:04:11;;;;;;;5.37;1.60;;;12.50;1.00;;;;;;5070669;28;20256;-73
2022/04/09 09:06:44;;;;;;;6.78;1.95;;;12.30;1.00;;;;;;5070561;28;20271;-75
2022/04/09 09:09:27;;;;;;;5.57;1.90;;;12.20;1.00;;;;;;5070112;28;20619;-74
2022/04/09 09:11:54;;;;;;;6.30;1.57;;;12.10;1.00;;;;;;5071099;28;20210;-73
2022/04/09 09:14:28;;;;;;;2.90;1.80;;;12.50;1.00;;;;;;5070095;28;20202;-74
2022/04/09 09:16:58;;;;;;;3.63;1.57;;;12.70;1.00;;;;;;5070927;28;20205;-72
2022/04/09 09:19:41;;;;;;;6.47;2.00;;;13.00;1.00;;;;;;5069661;28;20206;-75
2022/04/09 09:22:08;;;;;;;1.85;1.40;;;13.40;1.00;;;;;;5058612;28;20287;-72
2022/04/09 09:24:36;;;;;;;1.77;1.15;;;12.80;1.00;;;;;;5070089;28;20270;-74
2022/04/09 09:27:05;;;;;;;10.00;2.57;;;12.50;1.00;;;;;;5064792;28;20264;-76
2022/04/09 09:29:33;;;;;;;4.85;1.23;;;12.10;1.00;;;;;;5056527;28;20594;-74
2022/04/09 09:32:01;;;;;;;3.53;1.20;;;12.10;1.00;;;;;;5061227;28;20207;-75
2022/04/09 09:34:30;;;;;;;1.45;0.68;;;13.00;1.00;;;;;;5050156;28;20268;-72
2022/04/09 09:36:57;;;;;;;3.70;1.27;;;13.10;1.00;;;;;;5050407;28;20203;-75
2022/04/09 09:39:25;;;;;;;7.43;3.42;;;13.40;1.00;;;;;;5050005;28;20568;-74
2022/04/09 09:41:55;;;;;;;2.72;1.70;;;14.90;1.00;;;;;;5050486;28;20207;-74
2022/04/09 09:44:23;;;;;;;5.00;1.70;;;15.00;1.00;;;;;;5050281;28;20248;-73
2022/04/09 09:46:52;;;;;;;4.90;2.03;;;13.80;1.00;;;;;;5050597;28;20666;-72
2022/04/09 09:49:20;;;;;;;5.30;1.90;;;13.10;1.00;;;;;;5051840;28;20260;-73
2022/04/09 09:52:04;;;;;;;1.75;1.45;;;12.60;1.00;;;;;;5055227;28;20740;-73
2022/04/09 09:54:30;;;;;;;4.13;1.80;;;13.70;1.00;;;;;;5053805;28;20716;-73
2022/04/09 09:57:00;;;;;;;6.40;3.38;;;14.10;1.00;;;;;;5054521;28;20705;-74
2022/04/09 09:59:28;;;;;;;2.28;1.60;;;15.70;1.00;;;;;;5053855;28;20206;-74
2022/04/09 10:01:56;;;;;;;4.13;1.27;;;18.60;1.00;;;;;;5053924;28;20206;-74
2022/04/09 10:04:23;;;;;;;3.20;1.52;;;17.90;1.00;;;;;;5053673;28;20230;-73
2022/04/09 10:06:51;;;;;;;2.97;1.00;;;19.20;1.00;;;;;;5053962;28;20286;-72
2022/04/09 10:09:19;;;;;;;3.20;1.73;;;19.00;1.00;;;;;;5053556;28;20293;-73
2022/04/09 10:11:49;;;;;;;3.72;1.10;;;16.90;1.00;;;;;;5054670;28;20676;-72
2022/04/09 10:14:22;;;;;;;7.88;1.75;;;14.70;1.00;;;;;;5071206;28;20263;-74
2022/04/09 10:16:51;;;;;;;3.08;1.70;;;15.00;1.00;;;;;;5063742;28;20206;-72
2022/04/09 10:19:19;;;;;;;1.70;1.08;;;14.60;1.00;;;;;;5072664;28;20249;-73
2022/04/09 10:21:50;;;;;;;1.65;1.00;;;14.10;1.00;;;;;;5064523;28;20230;-73
2022/04/09 10:24:19;;;;;;;4.22;1.30;;;13.90;1.00;;;;;;5072709;28;20237;-74
2022/04/09 10:26:47;;;;;;;6.15;1.90;;;13.80;1.00;;;;;;5072673;28;20241;-74
2022/04/09 10:29:14;;;;;;;5.50;1.80;;;15.40;1.00;;;;;;5072969;28;20214;-74
2022/04/09 10:31:43;;;;;;;3.88;1.15;;;17.20;1.00;;;;;;5066257;28;20248;-74
2022/04/09 10:34:11;;;;;;;3.75;1.55;;;18.30;1.00;;;;;;5073094;28;20209;-74
2022/04/09 10:36:59;;;;;;;2.38;1.38;;;16.90;1.00;;;;;;5064110;28;20241;-73
2022/04/09 10:39:29;;;;;;;0.98;0.80;;;16.00;1.00;;;;;;5065486;28;20260;-73
2022/04/09 10:41:57;;;;;;;4.63;0.93;;;16.10;1.00;;;;;;5064738;28;20688;-73
2022/04/09 10:44:52;;;;;;;1.30;0.50;;;15.40;1.00;;;;;;5069669;28;20287;-72
2022/04/09 10:47:21;;;;;;;1.58;0.70;;;14.40;1.00;;;;;;5072265;28;20275;-72
2022/04/09 10:50:11;;;;;;;1.45;0.98;;;14.10;1.00;;;;;;5070110;28;20291;-73
2022/04/09 10:52:39;;;;;;;1.30;0.90;;;14.80;1.00;;;;;;5073227;28;20267;-73
2022/04/09 10:55:22;;;;;;;2.05;1.17;;;15.50;1.00;;;;;;5072607;28;20313;-75
2022/04/09 10:57:52;;;;;;;0.90;0.77;;;14.70;1.00;;;;;;5073023;28;20263;-73
2022/04/09 11:00:30;;;;;;;2.47;0.68;;;13.30;1.00;;;;;;5071944;28;20296;-73
2022/04/09 11:03:15;;;;;;;1.02;0.73;;;13.20;1.00;;;;;;5072885;28;20206;-74
2022/04/09 11:05:43;;;;;;;3.40;0.70;;;13.00;1.00;;;;;;5073302;28;20297;-73
2022/04/09 11:08:14;;;;;;;0.82;0.82;;;12.60;1.00;;;;;;5072520;28;20207;-72
2022/04/09 11:10:43;;;;;;;1.08;0.88;;;12.80;1.00;;;;;;5072799;28;20781;-72
2022/04/09 11:13:12;;;;;;;2.42;0.95;;;12.90;1.00;;;;;;5072555;28;20202;-72
2022/04/09 11:15:40;;;;;;;2.45;0.82;;;12.90;1.00;;;;;;5072671;28;20206;-73
2022/04/09 11:18:08;;;;;;;1.10;0.50;;;13.40;1.00;;;;;;5072552;28;20650;-73
2022/04/09 11:20:37;;;;;;;0.80;0.52;;;13.60;1.00;;;;;;5072243;28;20662;-73
2022/04/09 11:23:12;;;;;;;1.05;0.30;;;13.80;1.00;;;;;;5072645;28;20298;-72
2022/04/09 11:25:43;;;;;;;0.82;0.50;;;13.10;1.00;;;;;;5059828;28;20206;-73
2022/04/09 11:28:13;;;;;;;2.45;0.68;;;13.30;1.00;;;;;;5061249;28;20206;-72
2022/04/09 11:30:53;;;;;;;1.15;1.02;;;13.50;1.00;;;;;;5064021;28;20292;-75
2022/04/09 11:33:22;;;;;;;0.63;0.55;;;13.50;1.00;;;;;;5071544;28;20206;-73
2022/04/09 11:35:49;;;;;;;0.40;0.30;;;13.30;1.00;;;;;;5059047;28;20627;-76
2022/04/09 11:38:17;;;;;;;1.13;0.60;;;13.60;1.00;;;;;;5070221;28;20206;-73
2022/04/09 11:40:47;;;;;;;1.08;0.70;;;13.70;1.00;;;;;;5056868;28;20214;-75
2022/04/09 11:43:14;;;;;;;2.10;0.65;;;13.80;1.00;;;;;;5051490;28;20234;-74
2022/04/09 11:45:42;;;;;;;1.40;0.40;;;13.60;1.00;;;;;;5052151;28;20291;-74
2022/04/09 11:48:15;;;;;;;1.15;0.63;;;13.60;1.00;;;;;;5051644;28;20673;-73
2022/04/09 11:50:45;;;;;;;2.58;0.88;;;13.80;1.00;;;;;;5051834;28;20329;-74
2022/04/09 11:53:13;;;;;;;1.52;0.65;;;13.90;1.00;;;;;;5051595;28;20724;-73
2022/04/09 11:55:41;;;;;;;0.30;0.30;;;13.80;1.00;;;;;;5051416;28;20239;-73
2022/04/09 11:58:11;;;;;;;1.13;0.40;;;13.90;1.00;;;;;;5051405;28;20211;-73
2022/04/09 12:00:42;;;;;;;2.10;1.15;;;13.80;1.00;;;;;;5051931;28;20307;-73
2022/04/09 12:03:10;;;;;;;2.65;1.95;;;13.80;1.00;;;;;;5051549;28;20203;-72
2022/04/09 12:05:39;;;;;;;4.30;1.83;;;14.30;1.00;;;;;;5051634;28;20235;-71
2022/04/09 12:08:12;;;;;;;4.82;2.65;;;14.20;1.00;;;;;;5051365;28;20218;-71
2022/04/09 12:10:53;;;;;;;0.82;0.70;;;14.20;1.00;;;;;;5050708;28;20230;-71
2022/04/09 12:13:27;;;;;;;0.88;0.55;;;15.20;1.00;;;;;;5051099;28;20280;-70
2022/04/09 12:15:54;;;;;;;1.50;0.60;;;15.60;1.00;;;;;;5066466;28;20688;-71
2022/04/09 12:18:28;;;;;;;2.25;0.50;;;15.60;1.00;;;;;;5071121;28;20241;-71
2022/04/09 12:20:56;;;;;;;0.95;0.60;;;15.80;1.00;;;;;;5071253;28;20201;-70
2022/04/09 12:23:31;;;;;;;0.88;0.63;;;15.10;1.00;;;;;;5070905;28;20206;-70
2022/04/09 12:25:59;;;;;;;1.00;0.57;;;14.90;1.00;;;;;;5071505;28;20251;-70
2022/04/09 12:28:32;;;;;;;2.65;0.70;;;14.20;1.00;;;;;;5070900;28;21061;-71
2022/04/09 12:31:00;;;;;;;1.45;0.70;;;14.40;1.00;;;;;;5071254;28;20261;-70
2022/04/09 12:33:28;;;;;;;2.85;0.57;;;14.70;1.00;;;;;;5069682;28;20283;-71
2022/04/09 12:36:07;;;;;;;2.05;0.60;;;15.20;1.00;;;;;;5071249;28;20249;-70
2022/04/09 12:38:38;;;;;;;2.30;0.85;;;15.10;1.00;;;;;;5071109;28;20197;-71
2022/04/09 12:41:07;;;;;;;1.65;0.77;;;14.50;1.00;;;;;;5070999;28;20296;-71
2022/04/09 12:43:35;;;;;;;1.40;0.63;;;14.60;1.00;;;;;;5071129;28;20202;-73
2022/04/09 12:46:04;;;;;;;2.53;0.57;;;14.30;1.00;;;;;;5071431;28;20206;-72
2022/04/09 12:48:38;;;;;;;1.52;0.40;;;14.80;1.00;;;;;;5070797;28;20661;-73
2022/04/09 12:51:05;;;;;;;2.25;0.63;;;14.90;1.00;;;;;;5070940;28;20234;-73
2022/04/09 12:53:32;;;;;;;1.50;0.70;;;14.70;1.00;;;;;;5071288;28;20205;-73
2022/04/09 12:56:05;;;;;;;1.02;0.93;;;14.70;1.00;;;;;;5071229;28;20210;-73
2022/04/09 12:58:32;;;;;;;1.13;0.75;;;14.80;1.00;;;;;;5070993;28;20276;-72
2022/04/09 13:00:59;;;;;;;2.78;0.70;;;14.30;1.00;;;;;;5068307;28;20716;-72
2022/04/09 13:03:26;;;;;;;2.33;0.55;;;14.40;1.00;;;;;;5069458;28;20260;-73
2022/04/09 13:05:53;;;;;;;2.03;1.42;;;14.30;1.00;;;;;;5070141;28;20372;-73
2022/04/09 13:08:20;;;;;;;2.17;0.75;;;14.40;1.00;;;;;;5065776;28;20648;-71